Accueil
METAR-TAF:

METAR-TAF

Aéroports :

Aéroport international de Kansas City

Kansas City, Missouri, États-Unis

latitude: 39-17-50N, longitude: 094-43-50W, altitude: 312 m

Observation

Le bulletin a été fait il y a 32 minutes, à 14:53 UTC
Vent 5 kt de sud-est
Température 23°C
Humidité 53%
Pression 1019 hPa
Visibilité: 16.1 km
Nuages fragmentés à une hauteur de 25000 ft

METAR: KMCI 281453Z 14005KT 10SM BKN250 23/13 A3010 RMK AO2 SLP184 T02280128 51010

Heure: 10:25 (15:25 UTC)

Prévision

Le bulletin a été fait il y a 4 heures et 5 minutes, à 11:20 UTC
Prévision valable du 28 à 12 UTC au 29 à 12 UTC
Vent 7 kt de est/sud-est
Visibilité: 10 km
Quelques nuages à une hauteur de 8000 ft

TAF: KMCI 281120Z 2812/2912 12007KT P6SM FEW080

Observations et prévisions météorologiques de plus de 4000 aéroports (messages METAR et TAF).

Les stations disponibles sont représentées par des disques jaunes et rouges sur la carte.

Passer la souris dessus pour voir le nom de la station.

Cliquer dessus pour voir les observations et prévisions météorologiques.

Pour changer de carte: cliquez sur les boutons verts avec une croix noire pour zoomer, sur le bouton vert avec un tiret pour effectuer un zoom arrière, ou sur les flèches vertes pour les cartes adjacentes.


METAR-TAF: